sensor_id;sensor_type;location;lat;lon;timestamp;P1;durP1;ratioP1;P2;durP2;ratioP2
10987;SDS011;5547;42.672;23.230;2023-02-28T00:00:06;49.63;;;24.70;;
10987;SDS011;5547;42.672;23.230;2023-02-28T00:03:10;49.90;;;25.95;;
10987;SDS011;5547;42.672;23.230;2023-02-28T00:06:10;49.23;;;24.33;;
10987;SDS011;5547;42.672;23.230;2023-02-28T00:09:11;50.60;;;24.83;;
10987;SDS011;5547;42.672;23.230;2023-02-28T00:12:11;48.47;;;25.02;;
10987;SDS011;5547;42.672;23.230;2023-02-28T00:15:12;48.37;;;24.93;;
10987;SDS011;5547;42.672;23.230;2023-02-28T00:18:12;45.43;;;23.63;;
10987;SDS011;5547;42.672;23.230;2023-02-28T00:21:13;43.10;;;23.48;;
10987;SDS011;5547;42.672;23.230;2023-02-28T00:24:14;48.67;;;23.70;;
10987;SDS011;5547;42.672;23.230;2023-02-28T00:27:14;46.73;;;23.23;;
10987;SDS011;5547;42.672;23.230;2023-02-28T00:30:17;48.20;;;22.67;;
10987;SDS011;5547;42.672;23.230;2023-02-28T00:33:19;48.55;;;23.27;;
10987;SDS011;5547;42.672;23.230;2023-02-28T00:36:19;39.47;;;21.20;;
10987;SDS011;5547;42.672;23.230;2023-02-28T00:39:20;37.93;;;20.30;;
10987;SDS011;5547;42.672;23.230;2023-02-28T00:42:20;36.42;;;19.25;;
10987;SDS011;5547;42.672;23.230;2023-02-28T00:45:21;33.13;;;19.17;;
10987;SDS011;5547;42.672;23.230;2023-02-28T00:48:21;33.83;;;18.80;;
10987;SDS011;5547;42.672;23.230;2023-02-28T00:51:21;34.23;;;19.07;;
10987;SDS011;5547;42.672;23.230;2023-02-28T00:54:22;33.47;;;18.53;;
10987;SDS011;5547;42.672;23.230;2023-02-28T00:57:23;35.42;;;19.38;;
10987;SDS011;5547;42.672;23.230;2023-02-28T01:00:23;38.33;;;20.40;;
10987;SDS011;5547;42.672;23.230;2023-02-28T01:03:24;43.83;;;22.13;;
10987;SDS011;5547;42.672;23.230;2023-02-28T01:06:24;408.33;;;43.97;;
10987;SDS011;5547;42.672;23.230;2023-02-28T01:09:25;441.30;;;46.23;;
10987;SDS011;5547;42.672;23.230;2023-02-28T01:12:25;382.10;;;50.63;;
10987;SDS011;5547;42.672;23.230;2023-02-28T01:15:26;457.10;;;51.20;;
10987;SDS011;5547;42.672;23.230;2023-02-28T01:18:26;475.00;;;57.20;;
10987;SDS011;5547;42.672;23.230;2023-02-28T01:21:27;481.10;;;55.27;;
10987;SDS011;5547;42.672;23.230;2023-02-28T01:24:27;503.40;;;50.67;;
10987;SDS011;5547;42.672;23.230;2023-02-28T01:27:28;471.50;;;62.42;;
10987;SDS011;5547;42.672;23.230;2023-02-28T01:30:28;303.73;;;38.73;;
10987;SDS011;5547;42.672;23.230;2023-02-28T01:33:29;386.20;;;52.63;;
10987;SDS011;5547;42.672;23.230;2023-02-28T01:36:30;338.38;;;36.92;;
10987;SDS011;5547;42.672;23.230;2023-02-28T01:39:30;356.00;;;41.07;;
10987;SDS011;5547;42.672;23.230;2023-02-28T01:42:30;359.17;;;41.30;;
10987;SDS011;5547;42.672;23.230;2023-02-28T01:45:31;273.43;;;33.53;;
10987;SDS011;5547;42.672;23.230;2023-02-28T01:48:35;320.05;;;35.55;;
10987;SDS011;5547;42.672;23.230;2023-02-28T01:51:45;338.85;;;36.25;;
10987;SDS011;5547;42.672;23.230;2023-02-28T01:54:54;387.38;;;43.75;;
10987;SDS011;5547;42.672;23.230;2023-02-28T01:57:58;400.55;;;49.22;;
10987;SDS011;5547;42.672;23.230;2023-02-28T02:01:02;298.90;;;35.50;;
10987;SDS011;5547;42.672;23.230;2023-02-28T02:04:03;221.65;;;36.97;;
10987;SDS011;5547;42.672;23.230;2023-02-28T02:07:03;293.65;;;37.22;;
10987;SDS011;5547;42.672;23.230;2023-02-28T02:20:50;199.57;;;33.10;;
10987;SDS011;5547;42.672;23.230;2023-02-28T02:23:27;151.55;;;31.85;;
10987;SDS011;5547;42.672;23.230;2023-02-28T02:26:46;128.23;;;28.83;;
10987;SDS011;5547;42.672;23.230;2023-02-28T02:36:23;72.93;;;23.35;;
10987;SDS011;5547;42.672;23.230;2023-02-28T02:39:29;197.77;;;31.50;;
10987;SDS011;5547;42.672;23.230;2023-02-28T02:42:45;256.85;;;36.92;;
10987;SDS011;5547;42.672;23.230;2023-02-28T02:45:49;310.75;;;38.45;;
10987;SDS011;5547;42.672;23.230;2023-02-28T02:48:56;254.52;;;31.92;;
10987;SDS011;5547;42.672;23.230;2023-02-28T02:52:02;170.18;;;35.47;;
10987;SDS011;5547;42.672;23.230;2023-02-28T02:55:06;320.25;;;43.42;;
10987;SDS011;5547;42.672;23.230;2023-02-28T02:58:12;186.77;;;33.28;;
10987;SDS011;5547;42.672;23.230;2023-02-28T03:01:19;176.77;;;30.83;;
10987;SDS011;5547;42.672;23.230;2023-02-28T03:04:33;309.00;;;35.53;;
10987;SDS011;5547;42.672;23.230;2023-02-28T03:07:38;168.10;;;28.80;;
10987;SDS011;5547;42.672;23.230;2023-02-28T03:10:42;473.83;;;48.10;;
10987;SDS011;5547;42.672;23.230;2023-02-28T03:13:50;273.50;;;33.63;;
10987;SDS011;5547;42.672;23.230;2023-02-28T03:20:21;149.60;;;23.93;;
10987;SDS011;5547;42.672;23.230;2023-02-28T03:23:32;154.45;;;23.42;;
10987;SDS011;5547;42.672;23.230;2023-02-28T03:27:06;223.60;;;30.35;;
10987;SDS011;5547;42.672;23.230;2023-02-28T03:33:13;210.95;;;31.25;;
10987;SDS011;5547;42.672;23.230;2023-02-28T03:36:25;380.38;;;42.97;;
10987;SDS011;5547;42.672;23.230;2023-02-28T03:42:39;353.00;;;42.30;;
10987;SDS011;5547;42.672;23.230;2023-02-28T03:45:43;536.88;;;61.55;;
10987;SDS011;5547;42.672;23.230;2023-02-28T03:48:47;539.05;;;58.50;;
10987;SDS011;5547;42.672;23.230;2023-02-28T03:51:53;559.47;;;64.30;;
10987;SDS011;5547;42.672;23.230;2023-02-28T03:54:58;537.85;;;57.67;;
10987;SDS011;5547;42.672;23.230;2023-02-28T03:58:08;465.38;;;54.33;;
10987;SDS011;5547;42.672;23.230;2023-02-28T04:01:15;549.65;;;61.40;;
10987;SDS011;5547;42.672;23.230;2023-02-28T04:04:20;453.80;;;49.88;;
10987;SDS011;5547;42.672;23.230;2023-02-28T04:07:22;465.38;;;50.97;;
10987;SDS011;5547;42.672;23.230;2023-02-28T04:10:22;460.13;;;50.60;;
10987;SDS011;5547;42.672;23.230;2023-02-28T04:13:23;424.15;;;46.70;;
10987;SDS011;5547;42.672;23.230;2023-02-28T04:16:23;493.63;;;54.67;;
10987;SDS011;5547;42.672;23.230;2023-02-28T04:19:24;394.63;;;38.25;;
10987;SDS011;5547;42.672;23.230;2023-02-28T04:22:25;513.60;;;53.23;;
10987;SDS011;5547;42.672;23.230;2023-02-28T04:25:28;556.58;;;59.88;;
10987;SDS011;5547;42.672;23.230;2023-02-28T04:28:28;308.13;;;36.77;;
10987;SDS011;5547;42.672;23.230;2023-02-28T04:31:29;361.20;;;38.97;;
10987;SDS011;5547;42.672;23.230;2023-02-28T04:34:30;320.13;;;33.47;;
10987;SDS011;5547;42.672;23.230;2023-02-28T04:37:32;368.25;;;43.65;;
10987;SDS011;5547;42.672;23.230;2023-02-28T04:40:35;307.13;;;37.43;;
10987;SDS011;5547;42.672;23.230;2023-02-28T04:43:35;290.40;;;34.50;;
10987;SDS011;5547;42.672;23.230;2023-02-28T04:46:36;227.68;;;30.67;;
10987;SDS011;5547;42.672;23.230;2023-02-28T04:49:36;312.80;;;36.40;;
10987;SDS011;5547;42.672;23.230;2023-02-28T04:52:37;369.63;;;44.40;;
10987;SDS011;5547;42.672;23.230;2023-02-28T04:55:37;310.87;;;38.30;;
10987;SDS011;5547;42.672;23.230;2023-02-28T04:58:40;374.27;;;41.10;;
10987;SDS011;5547;42.672;23.230;2023-02-28T05:01:44;380.77;;;42.87;;
10987;SDS011;5547;42.672;23.230;2023-02-28T05:04:50;283.27;;;32.40;;
10987;SDS011;5547;42.672;23.230;2023-02-28T05:07:50;456.77;;;49.45;;
10987;SDS011;5547;42.672;23.230;2023-02-28T05:10:53;418.98;;;46.83;;
10987;SDS011;5547;42.672;23.230;2023-02-28T05:13:54;436.73;;;41.57;;
10987;SDS011;5547;42.672;23.230;2023-02-28T05:16:57;501.60;;;56.28;;
10987;SDS011;5547;42.672;23.230;2023-02-28T05:19:57;532.77;;;58.47;;
10987;SDS011;5547;42.672;23.230;2023-02-28T05:22:58;363.00;;;40.30;;
10987;SDS011;5547;42.672;23.230;2023-02-28T05:26:00;341.95;;;38.60;;
10987;SDS011;5547;42.672;23.230;2023-02-28T05:29:00;370.37;;;39.57;;
10987;SDS011;5547;42.672;23.230;2023-02-28T05:32:01;347.83;;;42.47;;
10987;SDS011;5547;42.672;23.230;2023-02-28T05:35:01;352.57;;;46.20;;
10987;SDS011;5547;42.672;23.230;2023-02-28T05:38:01;436.23;;;44.80;;
10987;SDS011;5547;42.672;23.230;2023-02-28T05:41:05;329.07;;;37.47;;
10987;SDS011;5547;42.672;23.230;2023-02-28T05:44:07;285.63;;;36.80;;
10987;SDS011;5547;42.672;23.230;2023-02-28T05:47:07;323.00;;;45.70;;
10987;SDS011;5547;42.672;23.230;2023-02-28T05:50:08;319.77;;;40.03;;
10987;SDS011;5547;42.672;23.230;2023-02-28T05:53:10;237.98;;;36.55;;
10987;SDS011;5547;42.672;23.230;2023-02-28T05:56:10;465.27;;;53.70;;
10987;SDS011;5547;42.672;23.230;2023-02-28T05:59:11;233.35;;;29.90;;
10987;SDS011;5547;42.672;23.230;2023-02-28T06:02:13;270.90;;;30.83;;
10987;SDS011;5547;42.672;23.230;2023-02-28T06:05:16;292.50;;;38.10;;
10987;SDS011;5547;42.672;23.230;2023-02-28T06:08:17;276.88;;;34.03;;
10987;SDS011;5547;42.672;23.230;2023-02-28T06:11:18;270.50;;;38.50;;
10987;SDS011;5547;42.672;23.230;2023-02-28T06:14:20;282.08;;;42.97;;
10987;SDS011;5547;42.672;23.230;2023-02-28T06:17:21;315.45;;;42.40;;
10987;SDS011;5547;42.672;23.230;2023-02-28T06:20:21;209.33;;;37.70;;
10987;SDS011;5547;42.672;23.230;2023-02-28T06:23:23;111.57;;;33.40;;
10987;SDS011;5547;42.672;23.230;2023-02-28T06:26:24;83.83;;;29.83;;
10987;SDS011;5547;42.672;23.230;2023-02-28T06:29:25;87.47;;;30.13;;
10987;SDS011;5547;42.672;23.230;2023-02-28T06:32:25;67.67;;;27.37;;
10987;SDS011;5547;42.672;23.230;2023-02-28T06:35:26;79.07;;;29.13;;
10987;SDS011;5547;42.672;23.230;2023-02-28T06:38:26;74.30;;;27.60;;
10987;SDS011;5547;42.672;23.230;2023-02-28T06:41:27;74.70;;;27.67;;
10987;SDS011;5547;42.672;23.230;2023-02-28T06:44:27;65.97;;;28.43;;
10987;SDS011;5547;42.672;23.230;2023-02-28T06:47:35;66.57;;;28.98;;
10987;SDS011;5547;42.672;23.230;2023-02-28T06:50:37;68.30;;;29.67;;
10987;SDS011;5547;42.672;23.230;2023-02-28T06:53:37;62.33;;;29.87;;
10987;SDS011;5547;42.672;23.230;2023-02-28T06:56:38;82.82;;;33.08;;
10987;SDS011;5547;42.672;23.230;2023-02-28T06:59:38;62.90;;;29.07;;
10987;SDS011;5547;42.672;23.230;2023-02-28T07:02:39;104.90;;;32.27;;
10987;SDS011;5547;42.672;23.230;2023-02-28T07:05:39;121.73;;;36.83;;
10987;SDS011;5547;42.672;23.230;2023-02-28T07:08:40;127.57;;;35.80;;
10987;SDS011;5547;42.672;23.230;2023-02-28T07:11:41;137.70;;;30.85;;
10987;SDS011;5547;42.672;23.230;2023-02-28T07:14:42;110.60;;;32.35;;
10987;SDS011;5547;42.672;23.230;2023-02-28T07:17:43;104.13;;;32.17;;
10987;SDS011;5547;42.672;23.230;2023-02-28T07:20:43;129.70;;;33.63;;
10987;SDS011;5547;42.672;23.230;2023-02-28T07:23:44;117.53;;;33.60;;
10987;SDS011;5547;42.672;23.230;2023-02-28T07:26:44;192.63;;;34.63;;
10987;SDS011;5547;42.672;23.230;2023-02-28T07:29:44;200.07;;;35.25;;
10987;SDS011;5547;42.672;23.230;2023-02-28T07:32:45;212.40;;;31.47;;
10987;SDS011;5547;42.672;23.230;2023-02-28T07:35:46;185.00;;;36.80;;
10987;SDS011;5547;42.672;23.230;2023-02-28T07:38:46;188.13;;;36.13;;
10987;SDS011;5547;42.672;23.230;2023-02-28T07:41:50;167.10;;;34.73;;
10987;SDS011;5547;42.672;23.230;2023-02-28T07:44:51;124.70;;;33.67;;
10987;SDS011;5547;42.672;23.230;2023-02-28T07:47:52;203.95;;;38.40;;
10987;SDS011;5547;42.672;23.230;2023-02-28T07:50:54;182.83;;;35.77;;
10987;SDS011;5547;42.672;23.230;2023-02-28T07:53:57;127.95;;;37.00;;
10987;SDS011;5547;42.672;23.230;2023-02-28T07:56:58;128.70;;;37.90;;
10987;SDS011;5547;42.672;23.230;2023-02-28T07:59:59;133.73;;;36.30;;
10987;SDS011;5547;42.672;23.230;2023-02-28T08:02:59;123.70;;;38.40;;
10987;SDS011;5547;42.672;23.230;2023-02-28T08:06:00;130.60;;;39.57;;
10987;SDS011;5547;42.672;23.230;2023-02-28T08:09:02;106.35;;;35.13;;
10987;SDS011;5547;42.672;23.230;2023-02-28T08:12:03;104.78;;;36.85;;
10987;SDS011;5547;42.672;23.230;2023-02-28T08:15:03;97.73;;;36.50;;
10987;SDS011;5547;42.672;23.230;2023-02-28T08:18:04;82.55;;;34.60;;
10987;SDS011;5547;42.672;23.230;2023-02-28T08:21:06;78.03;;;36.40;;
10987;SDS011;5547;42.672;23.230;2023-02-28T08:24:07;89.63;;;35.13;;
10987;SDS011;5547;42.672;23.230;2023-02-28T08:27:08;91.35;;;31.60;;
10987;SDS011;5547;42.672;23.230;2023-02-28T08:30:10;65.33;;;31.17;;
10987;SDS011;5547;42.672;23.230;2023-02-28T08:33:12;64.28;;;30.08;;
10987;SDS011;5547;42.672;23.230;2023-02-28T08:36:12;60.92;;;29.52;;
10987;SDS011;5547;42.672;23.230;2023-02-28T08:39:13;65.32;;;28.88;;
10987;SDS011;5547;42.672;23.230;2023-02-28T08:42:13;65.77;;;31.23;;
10987;SDS011;5547;42.672;23.230;2023-02-28T08:45:14;68.60;;;31.23;;
10987;SDS011;5547;42.672;23.230;2023-02-28T08:48:15;62.08;;;29.42;;
10987;SDS011;5547;42.672;23.230;2023-02-28T08:51:16;60.33;;;30.37;;
10987;SDS011;5547;42.672;23.230;2023-02-28T08:54:18;59.50;;;30.65;;
10987;SDS011;5547;42.672;23.230;2023-02-28T08:57:19;66.35;;;31.95;;
10987;SDS011;5547;42.672;23.230;2023-02-28T09:00:21;58.80;;;27.73;;
10987;SDS011;5547;42.672;23.230;2023-02-28T09:03:22;58.95;;;28.60;;
10987;SDS011;5547;42.672;23.230;2023-02-28T09:06:24;62.10;;;32.20;;
10987;SDS011;5547;42.672;23.230;2023-02-28T09:09:26;62.50;;;31.35;;
10987;SDS011;5547;42.672;23.230;2023-02-28T09:12:27;65.43;;;31.97;;
10987;SDS011;5547;42.672;23.230;2023-02-28T09:15:34;70.45;;;32.28;;
10987;SDS011;5547;42.672;23.230;2023-02-28T09:18:38;67.55;;;32.70;;
10987;SDS011;5547;42.672;23.230;2023-02-28T09:21:38;58.65;;;31.20;;
10987;SDS011;5547;42.672;23.230;2023-02-28T09:24:39;66.10;;;34.20;;
10987;SDS011;5547;42.672;23.230;2023-02-28T09:27:40;66.47;;;34.47;;
10987;SDS011;5547;42.672;23.230;2023-02-28T09:30:40;68.17;;;35.07;;
10987;SDS011;5547;42.672;23.230;2023-02-28T09:33:41;67.07;;;32.43;;
10987;SDS011;5547;42.672;23.230;2023-02-28T09:36:41;63.58;;;32.75;;
10987;SDS011;5547;42.672;23.230;2023-02-28T09:39:42;64.23;;;32.53;;
10987;SDS011;5547;42.672;23.230;2023-02-28T09:42:42;65.93;;;32.50;;
10987;SDS011;5547;42.672;23.230;2023-02-28T09:45:50;58.67;;;31.23;;
10987;SDS011;5547;42.672;23.230;2023-02-28T09:48:59;67.50;;;34.33;;
10987;SDS011;5547;42.672;23.230;2023-02-28T09:52:04;65.75;;;33.05;;
10987;SDS011;5547;42.672;23.230;2023-02-28T09:58:56;69.47;;;35.00;;
10987;SDS011;5547;42.672;23.230;2023-02-28T10:02:04;69.50;;;34.92;;
10987;SDS011;5547;42.672;23.230;2023-02-28T10:05:11;65.57;;;34.00;;
10987;SDS011;5547;42.672;23.230;2023-02-28T10:08:18;64.05;;;32.90;;
10987;SDS011;5547;42.672;23.230;2023-02-28T10:11:25;60.67;;;32.80;;
10987;SDS011;5547;42.672;23.230;2023-02-28T10:14:28;60.50;;;32.77;;
10987;SDS011;5547;42.672;23.230;2023-02-28T10:17:36;58.65;;;33.40;;
10987;SDS011;5547;42.672;23.230;2023-02-28T10:20:39;58.60;;;34.90;;
10987;SDS011;5547;42.672;23.230;2023-02-28T10:23:42;62.33;;;35.40;;
10987;SDS011;5547;42.672;23.230;2023-02-28T10:26:45;58.92;;;33.28;;
10987;SDS011;5547;42.672;23.230;2023-02-28T10:29:52;58.63;;;34.05;;
10987;SDS011;5547;42.672;23.230;2023-02-28T10:32:57;60.15;;;35.55;;
10987;SDS011;5547;42.672;23.230;2023-02-28T10:35:58;58.47;;;33.00;;
10987;SDS011;5547;42.672;23.230;2023-02-28T10:38:59;54.58;;;33.55;;
10987;SDS011;5547;42.672;23.230;2023-02-28T10:42:00;61.58;;;34.70;;
10987;SDS011;5547;42.672;23.230;2023-02-28T10:45:14;48.30;;;30.33;;
10987;SDS011;5547;42.672;23.230;2023-02-28T10:51:18;51.47;;;31.08;;
10987;SDS011;5547;42.672;23.230;2023-02-28T10:54:22;47.83;;;29.85;;
10987;SDS011;5547;42.672;23.230;2023-02-28T10:57:26;39.08;;;23.35;;
10987;SDS011;5547;42.672;23.230;2023-02-28T11:00:34;40.35;;;23.02;;
10987;SDS011;5547;42.672;23.230;2023-02-28T11:03:36;37.15;;;21.42;;
10987;SDS011;5547;42.672;23.230;2023-02-28T11:06:36;33.17;;;19.10;;
10987;SDS011;5547;42.672;23.230;2023-02-28T11:09:40;30.57;;;16.97;;
10987;SDS011;5547;42.672;23.230;2023-02-28T11:12:43;26.63;;;14.52;;
10987;SDS011;5547;42.672;23.230;2023-02-28T11:15:49;21.25;;;12.93;;
10987;SDS011;5547;42.672;23.230;2023-02-28T11:18:54;21.60;;;12.40;;
10987;SDS011;5547;42.672;23.230;2023-02-28T11:22:00;22.45;;;11.85;;
10987;SDS011;5547;42.672;23.230;2023-02-28T11:25:06;21.38;;;11.38;;
10987;SDS011;5547;42.672;23.230;2023-02-28T11:31:31;22.83;;;13.25;;
10987;SDS011;5547;42.672;23.230;2023-02-28T11:34:32;23.15;;;12.82;;
10987;SDS011;5547;42.672;23.230;2023-02-28T11:37:32;21.63;;;12.07;;
10987;SDS011;5547;42.672;23.230;2023-02-28T11:40:42;23.20;;;12.07;;
10987;SDS011;5547;42.672;23.230;2023-02-28T11:48:01;27.80;;;13.23;;
10987;SDS011;5547;42.672;23.230;2023-02-28T12:08:20;25.27;;;13.43;;
10987;SDS011;5547;42.672;23.230;2023-02-28T12:25:21;25.13;;;13.50;;
10987;SDS011;5547;42.672;23.230;2023-02-28T12:28:34;24.65;;;13.48;;
10987;SDS011;5547;42.672;23.230;2023-02-28T12:31:41;25.95;;;14.63;;
10987;SDS011;5547;42.672;23.230;2023-02-28T12:35:00;28.95;;;13.90;;
10987;SDS011;5547;42.672;23.230;2023-02-28T12:41:13;25.33;;;13.88;;
10987;SDS011;5547;42.672;23.230;2023-02-28T12:44:15;27.27;;;14.18;;
10987;SDS011;5547;42.672;23.230;2023-02-28T12:47:19;25.13;;;14.53;;
10987;SDS011;5547;42.672;23.230;2023-02-28T12:50:20;25.38;;;14.63;;
10987;SDS011;5547;42.672;23.230;2023-02-28T12:53:54;23.70;;;14.20;;
10987;SDS011;5547;42.672;23.230;2023-02-28T13:00:33;26.05;;;13.98;;
10987;SDS011;5547;42.672;23.230;2023-02-28T13:03:41;24.13;;;13.65;;
10987;SDS011;5547;42.672;23.230;2023-02-28T13:10:40;24.75;;;13.77;;
10987;SDS011;5547;42.672;23.230;2023-02-28T13:13:45;22.48;;;12.70;;
10987;SDS011;5547;42.672;23.230;2023-02-28T13:16:47;25.30;;;14.13;;
10987;SDS011;5547;42.672;23.230;2023-02-28T13:22:54;24.37;;;13.80;;
10987;SDS011;5547;42.672;23.230;2023-02-28T13:25:57;25.50;;;14.10;;
10987;SDS011;5547;42.672;23.230;2023-02-28T13:38:12;23.27;;;12.43;;
10987;SDS011;5547;42.672;23.230;2023-02-28T13:44:28;25.57;;;13.10;;
10987;SDS011;5547;42.672;23.230;2023-02-28T13:47:29;22.65;;;12.20;;
10987;SDS011;5547;42.672;23.230;2023-02-28T13:50:37;22.25;;;12.35;;
10987;SDS011;5547;42.672;23.230;2023-02-28T13:53:41;22.95;;;13.05;;
10987;SDS011;5547;42.672;23.230;2023-02-28T13:57:01;23.02;;;11.05;;
10987;SDS011;5547;42.672;23.230;2023-02-28T14:00:17;22.27;;;10.70;;
10987;SDS011;5547;42.672;23.230;2023-02-28T14:06:35;18.87;;;10.20;;
10987;SDS011;5547;42.672;23.230;2023-02-28T14:09:39;19.83;;;10.15;;
10987;SDS011;5547;42.672;23.230;2023-02-28T14:12:52;20.23;;;10.40;;
10987;SDS011;5547;42.672;23.230;2023-02-28T14:16:00;21.08;;;11.52;;
10987;SDS011;5547;42.672;23.230;2023-02-28T14:19:14;20.17;;;10.93;;
10987;SDS011;5547;42.672;23.230;2023-02-28T14:25:23;22.13;;;12.50;;
10987;SDS011;5547;42.672;23.230;2023-02-28T14:35:48;20.85;;;10.73;;
10987;SDS011;5547;42.672;23.230;2023-02-28T14:38:52;21.92;;;10.85;;
10987;SDS011;5547;42.672;23.230;2023-02-28T14:41:56;17.70;;;10.30;;
10987;SDS011;5547;42.672;23.230;2023-02-28T14:44:59;17.98;;;10.07;;
10987;SDS011;5547;42.672;23.230;2023-02-28T14:48:00;22.33;;;10.20;;
10987;SDS011;5547;42.672;23.230;2023-02-28T14:51:02;18.52;;;9.05;;
10987;SDS011;5547;42.672;23.230;2023-02-28T14:54:03;18.17;;;10.50;;
10987;SDS011;5547;42.672;23.230;2023-02-28T14:57:04;20.88;;;11.00;;
10987;SDS011;5547;42.672;23.230;2023-02-28T15:00:16;21.80;;;10.85;;
10987;SDS011;5547;42.672;23.230;2023-02-28T15:03:37;21.33;;;10.43;;
10987;SDS011;5547;42.672;23.230;2023-02-28T15:06:44;20.23;;;11.20;;
10987;SDS011;5547;42.672;23.230;2023-02-28T15:09:45;19.48;;;10.85;;
10987;SDS011;5547;42.672;23.230;2023-02-28T15:13:07;18.23;;;9.67;;
10987;SDS011;5547;42.672;23.230;2023-02-28T15:16:11;18.58;;;10.00;;
10987;SDS011;5547;42.672;23.230;2023-02-28T15:19:21;19.77;;;10.15;;
10987;SDS011;5547;42.672;23.230;2023-02-28T15:22:35;19.15;;;10.48;;
10987;SDS011;5547;42.672;23.230;2023-02-28T15:25:37;18.98;;;10.20;;
10987;SDS011;5547;42.672;23.230;2023-02-28T15:28:40;21.95;;;10.25;;
10987;SDS011;5547;42.672;23.230;2023-02-28T15:31:43;20.85;;;11.07;;
10987;SDS011;5547;42.672;23.230;2023-02-28T15:34:46;22.20;;;11.00;;
10987;SDS011;5547;42.672;23.230;2023-02-28T15:37:48;22.17;;;11.37;;
10987;SDS011;5547;42.672;23.230;2023-02-28T15:40:54;18.33;;;10.15;;
10987;SDS011;5547;42.672;23.230;2023-02-28T15:47:19;22.80;;;11.73;;
10987;SDS011;5547;42.672;23.230;2023-02-28T15:50:27;20.45;;;10.60;;
10987;SDS011;5547;42.672;23.230;2023-02-28T15:53:29;22.90;;;9.98;;
10987;SDS011;5547;42.672;23.230;2023-02-28T15:56:32;18.27;;;9.95;;
10987;SDS011;5547;42.672;23.230;2023-02-28T15:59:38;18.42;;;10.13;;
10987;SDS011;5547;42.672;23.230;2023-02-28T16:02:39;21.63;;;11.35;;
10987;SDS011;5547;42.672;23.230;2023-02-28T16:05:40;18.10;;;10.18;;
10987;SDS011;5547;42.672;23.230;2023-02-28T16:08:40;17.07;;;9.90;;
10987;SDS011;5547;42.672;23.230;2023-02-28T16:11:50;19.07;;;10.57;;
10987;SDS011;5547;42.672;23.230;2023-02-28T16:14:54;15.17;;;9.40;;
10987;SDS011;5547;42.672;23.230;2023-02-28T16:17:57;16.67;;;9.68;;
10987;SDS011;5547;42.672;23.230;2023-02-28T16:20:57;16.65;;;10.00;;
10987;SDS011;5547;42.672;23.230;2023-02-28T16:23:58;15.27;;;9.60;;
10987;SDS011;5547;42.672;23.230;2023-02-28T16:26:58;19.87;;;11.67;;
10987;SDS011;5547;42.672;23.230;2023-02-28T16:30:00;18.63;;;12.77;;
10987;SDS011;5547;42.672;23.230;2023-02-28T16:33:01;18.35;;;11.10;;
10987;SDS011;5547;42.672;23.230;2023-02-28T16:36:01;16.77;;;11.33;;
10987;SDS011;5547;42.672;23.230;2023-02-28T16:39:02;20.45;;;12.02;;
10987;SDS011;5547;42.672;23.230;2023-02-28T16:42:03;21.58;;;13.30;;
10987;SDS011;5547;42.672;23.230;2023-02-28T16:45:05;17.00;;;11.90;;
10987;SDS011;5547;42.672;23.230;2023-02-28T16:48:07;23.73;;;14.40;;
10987;SDS011;5547;42.672;23.230;2023-02-28T16:51:14;24.87;;;15.37;;
10987;SDS011;5547;42.672;23.230;2023-02-28T16:54:16;20.35;;;13.15;;
10987;SDS011;5547;42.672;23.230;2023-02-28T16:57:18;26.97;;;16.87;;
10987;SDS011;5547;42.672;23.230;2023-02-28T17:00:22;35.67;;;20.05;;
10987;SDS011;5547;42.672;23.230;2023-02-28T17:03:23;16.38;;;10.80;;
10987;SDS011;5547;42.672;23.230;2023-02-28T17:06:26;33.47;;;19.70;;
10987;SDS011;5547;42.672;23.230;2023-02-28T17:09:27;18.23;;;11.43;;
10987;SDS011;5547;42.672;23.230;2023-02-28T17:12:28;13.75;;;9.43;;
10987;SDS011;5547;42.672;23.230;2023-02-28T17:15:28;13.30;;;10.03;;
10987;SDS011;5547;42.672;23.230;2023-02-28T17:18:30;14.87;;;9.67;;
10987;SDS011;5547;42.672;23.230;2023-02-28T17:21:33;15.85;;;9.60;;
10987;SDS011;5547;42.672;23.230;2023-02-28T17:24:37;16.65;;;10.93;;
10987;SDS011;5547;42.672;23.230;2023-02-28T17:27:37;15.35;;;10.15;;
10987;SDS011;5547;42.672;23.230;2023-02-28T17:30:38;12.17;;;8.23;;
10987;SDS011;5547;42.672;23.230;2023-02-28T17:33:40;11.57;;;7.60;;
10987;SDS011;5547;42.672;23.230;2023-02-28T17:36:41;12.43;;;8.95;;
10987;SDS011;5547;42.672;23.230;2023-02-28T17:39:41;12.63;;;8.20;;
10987;SDS011;5547;42.672;23.230;2023-02-28T17:42:42;11.23;;;7.63;;
10987;SDS011;5547;42.672;23.230;2023-02-28T17:45:43;13.10;;;8.18;;
10987;SDS011;5547;42.672;23.230;2023-02-28T17:48:43;13.65;;;8.35;;
10987;SDS011;5547;42.672;23.230;2023-02-28T17:51:44;11.50;;;8.38;;
10987;SDS011;5547;42.672;23.230;2023-02-28T17:54:45;12.17;;;8.00;;
10987;SDS011;5547;42.672;23.230;2023-02-28T17:57:45;14.40;;;8.88;;
10987;SDS011;5547;42.672;23.230;2023-02-28T18:00:46;10.90;;;7.13;;
10987;SDS011;5547;42.672;23.230;2023-02-28T18:03:47;13.00;;;7.80;;
10987;SDS011;5547;42.672;23.230;2023-02-28T18:06:48;9.80;;;7.35;;
10987;SDS011;5547;42.672;23.230;2023-02-28T18:09:52;11.13;;;7.37;;
10987;SDS011;5547;42.672;23.230;2023-02-28T18:12:53;11.07;;;7.20;;
10987;SDS011;5547;42.672;23.230;2023-02-28T18:15:56;10.97;;;7.77;;
10987;SDS011;5547;42.672;23.230;2023-02-28T18:18:57;12.63;;;8.30;;
10987;SDS011;5547;42.672;23.230;2023-02-28T18:21:57;11.77;;;8.55;;
10987;SDS011;5547;42.672;23.230;2023-02-28T18:24:58;11.17;;;8.83;;
10987;SDS011;5547;42.672;23.230;2023-02-28T18:27:59;10.88;;;8.88;;
10987;SDS011;5547;42.672;23.230;2023-02-28T18:31:06;11.73;;;8.80;;
10987;SDS011;5547;42.672;23.230;2023-02-28T18:34:07;11.65;;;9.25;;
10987;SDS011;5547;42.672;23.230;2023-02-28T18:37:08;11.52;;;9.07;;
10987;SDS011;5547;42.672;23.230;2023-02-28T18:40:10;12.57;;;9.20;;
10987;SDS011;5547;42.672;23.230;2023-02-28T18:43:11;12.35;;;9.73;;
10987;SDS011;5547;42.672;23.230;2023-02-28T18:46:13;14.93;;;11.67;;
10987;SDS011;5547;42.672;23.230;2023-02-28T18:49:16;12.07;;;9.15;;
10987;SDS011;5547;42.672;23.230;2023-02-28T18:52:16;13.02;;;9.02;;
10987;SDS011;5547;42.672;23.230;2023-02-28T18:55:17;13.80;;;9.53;;
10987;SDS011;5547;42.672;23.230;2023-02-28T18:58:17;10.97;;;8.77;;
10987;SDS011;5547;42.672;23.230;2023-02-28T19:01:27;11.88;;;8.05;;
10987;SDS011;5547;42.672;23.230;2023-02-28T19:04:32;10.05;;;8.27;;
10987;SDS011;5547;42.672;23.230;2023-02-28T19:07:33;10.87;;;9.30;;
10987;SDS011;5547;42.672;23.230;2023-02-28T19:10:37;10.05;;;8.00;;
10987;SDS011;5547;42.672;23.230;2023-02-28T19:13:39;11.40;;;8.93;;
10987;SDS011;5547;42.672;23.230;2023-02-28T19:16:39;10.10;;;9.00;;
10987;SDS011;5547;42.672;23.230;2023-02-28T19:19:40;11.23;;;9.10;;
10987;SDS011;5547;42.672;23.230;2023-02-28T19:22:40;11.38;;;8.75;;
10987;SDS011;5547;42.672;23.230;2023-02-28T19:25:41;11.00;;;8.77;;
10987;SDS011;5547;42.672;23.230;2023-02-28T19:28:42;12.05;;;8.90;;
10987;SDS011;5547;42.672;23.230;2023-02-28T19:31:42;11.90;;;9.73;;
10987;SDS011;5547;42.672;23.230;2023-02-28T19:34:43;13.90;;;10.00;;
10987;SDS011;5547;42.672;23.230;2023-02-28T19:37:43;14.88;;;10.60;;
10987;SDS011;5547;42.672;23.230;2023-02-28T19:40:44;13.67;;;9.77;;